Time;durP1;ratioP1;P1;durP2;ratioP2;P2;SDS_P1;SDS_P2;PMS_P1;PMS_P2;Temp;Humidity;BMP_temperature;BMP_pressure;BME280_temperature;BME280_humidity;BME280_pressure;Samples;Min_cycle;Max_cycle;Signal;HPM_P1;HPM_P2
2021/03/06 00:01:54;;;;;;;11.68;5.70;;;0.90;93.30;;;;;;5852745;24;20021;-93
2021/03/06 00:15:34;;;;;;;13.85;5.07;;;0.70;93.20;;;;;;5548066;22;12144913;-94
2021/03/06 00:19:04;;;;;;;9.98;5.10;;;0.60;92.70;;;;;;5999749;23;20140;-90
2021/03/06 00:21:58;;;;;;;9.63;4.70;;;0.50;92.70;;;;;;5987473;23;20034;-91
2021/03/06 00:24:43;;;;;;;;;;;;;;;;;;;;;
2021/03/06 00:27:39;;;;;;;9.32;4.50;;;0.40;92.30;;;;;;5918485;23;20028;-92
2021/03/06 00:30:27;;;;;;;;;;;;;;;;;;;;;
2021/03/06 00:43:38;;;;;;;10.48;4.30;;;0.30;91.90;;;;;;5495969;22;15102331;-92
2021/03/06 00:46:35;;;;;;;13.48;5.05;;;0.00;91.60;;;;;;6102132;23;20033;-92
2021/03/06 00:49:27;;;;;;;8.80;4.00;;;0.00;91.70;;;;;;5996192;23;20016;-91
2021/03/06 01:06:24;;;;;;;12.63;5.05;;;-0.20;91.60;;;;;;6173376;22;20779;-92
2021/03/06 01:08:57;;;;;;;13.80;5.55;;;-0.30;91.60;;;;;;6090518;23;20051;-91
2021/03/06 01:11:24;;;;;;;9.57;4.88;;;-0.20;91.80;;;;;;6140476;23;20042;-92
2021/03/06 01:13:52;;;;;;;10.18;4.65;;;-0.30;91.80;;;;;;6160457;23;20172;-90
2021/03/06 01:16:19;;;;;;;11.85;5.82;;;-0.30;91.70;;;;;;6149294;23;20040;-93
2021/03/06 01:18:47;;;;;;;10.25;5.15;;;-0.40;91.80;;;;;;6158325;23;20423;-95
2021/03/06 01:21:13;;;;;;;9.40;4.50;;;-0.40;91.90;;;;;;6152569;23;20027;-94
2021/03/06 01:23:40;;;;;;;9.27;4.10;;;-0.40;91.90;;;;;;6135808;23;20027;-93
2021/03/06 01:26:06;;;;;;;8.40;4.35;;;-0.40;91.60;;;;;;6173152;23;20032;-93
2021/03/06 01:28:32;;;;;;;8.30;4.03;;;-0.40;91.60;;;;;;6163036;23;20373;-94
2021/03/06 01:30:58;;;;;;;8.20;3.88;;;-0.40;91.40;;;;;;6150392;23;20028;-95
2021/03/06 01:33:25;;;;;;;9.25;4.28;;;-0.40;91.30;;;;;;6176084;23;20024;-92
2021/03/06 01:35:51;;;;;;;11.13;4.97;;;-0.40;91.30;;;;;;6157700;23;20030;-91
2021/03/06 01:38:18;;;;;;;7.70;4.32;;;-0.40;91.60;;;;;;6188680;23;20016;-92
2021/03/06 01:40:44;;;;;;;8.18;4.28;;;-0.40;91.60;;;;;;6123835;23;20032;-95
2021/03/06 01:43:12;;;;;;;6.95;3.90;;;-0.40;91.50;;;;;;6153628;23;20096;-92
2021/03/06 01:45:42;;;;;;;7.38;3.83;;;-0.40;91.40;;;;;;6130759;23;20021;-93
2021/03/06 01:48:09;;;;;;;12.40;4.78;;;-0.40;91.30;;;;;;6105921;23;20017;-93
2021/03/06 01:50:43;;;;;;;8.15;4.25;;;-0.40;91.40;;;;;;6112107;23;20104;-88
2021/03/06 01:53:13;;;;;;;6.63;3.90;;;-0.30;91.60;;;;;;6141945;23;20663;-92
2021/03/06 01:55:47;;;;;;;7.60;3.50;;;-0.20;91.60;;;;;;6166319;23;20021;-93
2021/03/06 01:58:14;;;;;;;10.07;4.97;;;-0.30;91.50;;;;;;6111981;23;20031;-94
2021/03/06 02:00:42;;;;;;;9.20;4.90;;;-0.20;91.90;;;;;;6141737;23;20058;-90
2021/03/06 02:03:13;;;;;;;12.48;4.70;;;-0.20;91.80;;;;;;6120791;23;20676;-92
2021/03/06 02:05:39;;;;;;;7.22;3.88;;;-0.20;92.10;;;;;;6101135;23;20021;-90
2021/03/06 02:08:06;;;;;;;9.10;4.13;;;-0.10;91.70;;;;;;6154915;23;20024;-93
2021/03/06 02:10:42;;;;;;;12.70;4.78;;;-0.10;91.50;;;;;;6089731;23;20014;-93
2021/03/06 02:13:39;;;;;;;9.95;4.65;;;-0.10;91.60;;;;;;6165864;23;20037;-93
2021/03/06 02:16:38;;;;;;;10.10;4.22;;;0.00;91.80;;;;;;6127839;23;20025;-94
2021/03/06 02:19:18;;;;;;;7.65;3.95;;;0.10;92.00;;;;;;6135489;23;20036;-94
2021/03/06 02:22:10;;;;;;;9.35;4.70;;;0.10;91.80;;;;;;6152962;23;20451;-93
2021/03/06 02:25:02;;;;;;;8.55;4.15;;;0.10;91.80;;;;;;6124244;23;20029;-88
2021/03/06 02:27:40;;;;;;;11.38;4.43;;;0.20;91.90;;;;;;6139775;23;20036;-91
2021/03/06 02:30:10;;;;;;;10.57;5.07;;;0.20;91.60;;;;;;6112810;23;20048;-94
2021/03/06 02:32:45;;;;;;;13.05;5.25;;;0.10;91.50;;;;;;6155519;23;20021;-89
2021/03/06 02:35:15;;;;;;;;;;;0.20;91.90;;;;;;6140075;23;20187;-95
2021/03/06 02:37:58;;;;;;;19.90;6.80;;;0.20;92.40;;;;;;6110383;23;19924;-94
2021/03/06 02:40:26;;;;;;;26.08;8.95;;;0.30;92.50;;;;;;6134454;23;20021;-95
2021/03/06 02:42:55;;;;;;;16.15;5.90;;;0.40;92.60;;;;;;6148013;23;20020;-89
2021/03/06 02:45:26;;;;;;;11.93;5.95;;;0.50;93.00;;;;;;6187439;23;20023;-90
2021/03/06 02:47:52;;;;;;;12.57;4.68;;;0.50;93.40;;;;;;6166276;23;20017;-93
2021/03/06 02:50:19;;;;;;;17.60;6.07;;;0.60;93.80;;;;;;6178135;23;20025;-94
2021/03/06 02:52:45;;;;;;;16.35;6.28;;;0.60;93.70;;;;;;6136217;23;20025;-91
2021/03/06 02:55:11;;;;;;;13.93;6.07;;;0.60;93.70;;;;;;6150273;23;20084;-87
2021/03/06 02:58:01;;;;;;;10.38;4.82;;;0.60;93.70;;;;;;6150969;23;20079;-87
2021/03/06 03:00:52;;;;;;;11.27;6.10;;;0.70;93.70;;;;;;6137894;23;20052;-93
2021/03/06 03:03:54;;;;;;;13.43;5.88;;;0.70;93.70;;;;;;6179920;23;20021;-93
2021/03/06 03:06:26;;;;;;;14.13;5.93;;;0.70;93.70;;;;;;6159584;23;20025;-93
2021/03/06 03:08:51;;;;;;;13.10;5.75;;;0.70;93.70;;;;;;6177205;23;20093;-93
2021/03/06 03:11:23;;;;;;;13.07;5.95;;;0.80;93.80;;;;;;6179993;23;20045;-94
2021/03/06 03:13:55;;;;;;;17.27;5.88;;;0.80;93.90;;;;;;6179034;23;20025;-94
2021/03/06 03:16:23;;;;;;;13.82;5.38;;;0.80;93.90;;;;;;6137976;23;20054;-89
2021/03/06 03:19:06;;;;;;;12.90;5.50;;;0.80;94.00;;;;;;6178973;23;20024;-92
2021/03/06 03:21:34;;;;;;;11.77;4.88;;;0.90;94.10;;;;;;6109852;23;20025;-91
2021/03/06 03:24:14;;;;;;;16.67;5.57;;;0.90;94.40;;;;;;6127744;23;20017;-93
2021/03/06 03:26:42;;;;;;;14.15;5.55;;;1.00;94.20;;;;;;6177304;23;20017;-87
2021/03/06 03:29:09;;;;;;;11.93;5.53;;;0.90;94.30;;;;;;6152196;23;20021;-93
2021/03/06 03:31:36;;;;;;;15.10;5.90;;;1.10;94.40;;;;;;6154115;23;20024;-95
2021/03/06 03:34:07;;;;;;;12.05;5.57;;;1.10;94.40;;;;;;6152788;23;20013;-94
2021/03/06 03:36:33;;;;;;;13.60;6.03;;;1.10;94.50;;;;;;6153151;23;20025;-93
2021/03/06 03:39:00;;;;;;;13.57;5.53;;;1.10;94.40;;;;;;6178588;23;20017;-93
2021/03/06 03:41:27;;;;;;;12.93;6.80;;;1.20;94.50;;;;;;6179578;23;20017;-93
2021/03/06 03:43:54;;;;;;;12.70;5.82;;;1.20;94.50;;;;;;6178230;23;20037;-90
2021/03/06 03:46:20;;;;;;;12.57;5.30;;;1.20;94.50;;;;;;6154358;23;20344;-91
2021/03/06 03:48:46;;;;;;;14.05;5.60;;;1.20;94.60;;;;;;6152459;23;20036;-93
2021/03/06 03:51:13;;;;;;;13.95;5.90;;;1.20;94.50;;;;;;6178591;23;20028;-93
2021/03/06 03:53:39;;;;;;;11.93;5.50;;;1.20;94.50;;;;;;6152144;23;20939;-92
2021/03/06 03:56:07;;;;;;;13.13;5.47;;;1.30;94.50;;;;;;6151953;23;20440;-93
2021/03/06 03:58:33;;;;;;;15.75;5.40;;;1.30;94.80;;;;;;6178454;23;20044;-92
2021/03/06 04:01:01;;;;;;;11.40;5.65;;;1.20;94.40;;;;;;6177748;23;20020;-90
2021/03/06 04:03:27;;;;;;;12.25;5.82;;;1.30;94.50;;;;;;6178403;23;20347;-92
2021/03/06 04:05:55;;;;;;;14.70;6.00;;;1.30;94.50;;;;;;6177421;23;20017;-93
2021/03/06 04:08:21;;;;;;;13.57;5.28;;;1.30;94.50;;;;;;6179161;23;20076;-86
2021/03/06 04:10:46;;;;;;;10.05;5.53;;;1.40;94.60;;;;;;6179140;23;20063;-92
2021/03/06 04:13:12;;;;;;;16.80;5.40;;;1.40;94.50;;;;;;6152376;23;20452;-93
2021/03/06 04:15:38;;;;;;;11.30;5.35;;;1.40;94.50;;;;;;6153075;23;20040;-92
2021/03/06 04:18:05;;;;;;;8.00;5.13;;;1.40;94.50;;;;;;6178289;23;20060;-93
2021/03/06 04:20:31;;;;;;;14.13;6.80;;;1.40;94.40;;;;;;6152076;23;20032;-93
2021/03/06 04:22:58;;;;;;;14.00;6.18;;;1.50;94.50;;;;;;6176744;23;20020;-93
2021/03/06 04:25:24;;;;;;;10.40;4.90;;;1.50;94.50;;;;;;6164230;23;20048;-94
2021/03/06 04:27:50;;;;;;;8.43;5.05;;;1.50;94.40;;;;;;6178605;23;20025;-96
2021/03/06 04:30:17;;;;;;;10.13;4.95;;;1.40;94.50;;;;;;6154473;23;20029;-94
2021/03/06 04:32:42;;;;;;;12.60;6.50;;;1.40;94.40;;;;;;6180725;23;20329;-87
2021/03/06 04:35:10;;;;;;;11.63;5.43;;;1.50;94.40;;;;;;6185636;23;20017;-94
2021/03/06 04:37:37;;;;;;;12.32;5.30;;;1.50;94.40;;;;;;6156839;23;20045;-93
2021/03/06 04:40:08;;;;;;;13.30;5.50;;;1.50;94.40;;;;;;6180464;23;20145;-93
2021/03/06 04:42:34;;;;;;;13.13;5.43;;;1.50;94.40;;;;;;6155134;23;20009;-93
2021/03/06 04:45:00;;;;;;;10.73;5.03;;;1.50;94.40;;;;;;6154218;23;20025;-94
2021/03/06 04:47:26;;;;;;;14.52;5.35;;;1.50;94.40;;;;;;6181173;23;20075;-91
2021/03/06 04:49:52;;;;;;;9.07;5.57;;;1.50;94.40;;;;;;6180503;23;20121;-92
2021/03/06 04:52:18;;;;;;;12.82;5.50;;;1.50;94.40;;;;;;6181449;23;20024;-94
2021/03/06 04:54:44;;;;;;;10.40;5.25;;;1.50;94.40;;;;;;6180969;23;20044;-88
2021/03/06 04:57:13;;;;;;;13.43;5.35;;;1.50;94.40;;;;;;6129759;23;20448;-93
2021/03/06 04:59:43;;;;;;;12.10;5.47;;;1.60;94.50;;;;;;6180170;23;20072;-94
2021/03/06 05:02:09;;;;;;;11.70;5.22;;;1.60;94.60;;;;;;6183309;23;20039;-94
2021/03/06 05:04:35;;;;;;;9.98;5.93;;;1.70;94.60;;;;;;6131785;23;20476;-94
2021/03/06 05:07:01;;;;;;;10.43;5.30;;;1.70;94.60;;;;;;6156136;23;20021;-93
2021/03/06 05:09:27;;;;;;;13.02;6.18;;;1.70;94.70;;;;;;6182789;23;20049;-94
2021/03/06 05:11:53;;;;;;;11.55;5.43;;;1.70;94.70;;;;;;6183983;23;20347;-92
2021/03/06 05:14:19;;;;;;;10.90;5.82;;;1.70;94.70;;;;;;6192605;23;20021;-91
2021/03/06 05:16:45;;;;;;;12.40;5.43;;;1.70;94.70;;;;;;6173389;23;20024;-88
2021/03/06 05:19:11;;;;;;;10.50;5.55;;;1.80;94.80;;;;;;6178685;23;20029;-94
2021/03/06 05:21:37;;;;;;;10.40;5.57;;;1.80;94.80;;;;;;6199906;23;20077;-88
2021/03/06 05:24:04;;;;;;;9.90;5.03;;;1.80;94.90;;;;;;6173797;23;20322;-93
2021/03/06 05:26:30;;;;;;;14.88;5.55;;;1.80;94.90;;;;;;6188452;23;20013;-92
2021/03/06 05:28:56;;;;;;;10.50;5.63;;;1.70;94.80;;;;;;6198760;23;20021;-94
2021/03/06 05:31:22;;;;;;;10.48;4.80;;;1.70;94.80;;;;;;6197899;23;20088;-92
2021/03/06 05:33:47;;;;;;;10.77;6.00;;;1.70;94.90;;;;;;6199453;23;20024;-88
2021/03/06 05:36:13;;;;;;;11.63;5.20;;;1.70;94.80;;;;;;6195157;23;20028;-91
2021/03/06 05:38:39;;;;;;;13.60;5.78;;;1.70;94.90;;;;;;6172743;23;20021;-95
2021/03/06 05:41:05;;;;;;;12.77;5.75;;;1.70;94.90;;;;;;6197165;23;20201;-95
2021/03/06 05:43:31;;;;;;;10.10;5.25;;;1.70;94.90;;;;;;6199422;23;20021;-93
2021/03/06 05:45:57;;;;;;;17.83;5.40;;;1.70;94.90;;;;;;6171655;23;20017;-90
2021/03/06 05:48:23;;;;;;;12.38;5.75;;;1.70;94.90;;;;;;6172929;23;20043;-94
2021/03/06 05:50:51;;;;;;;11.50;5.57;;;1.80;94.90;;;;;;6174124;23;20375;-87
2021/03/06 05:53:20;;;;;;;9.93;5.05;;;1.80;94.90;;;;;;6203797;23;20024;-91
2021/03/06 05:55:56;;;;;;;14.32;5.63;;;1.80;94.80;;;;;;6205093;23;20013;-88
2021/03/06 05:58:22;;;;;;;13.07;5.30;;;1.80;94.90;;;;;;6202294;23;20021;-84
2021/03/06 06:00:49;;;;;;;13.02;5.32;;;1.80;94.80;;;;;;6203681;23;20028;-88
2021/03/06 06:03:20;;;;;;;10.60;5.70;;;1.90;94.80;;;;;;6176727;23;20047;-90
2021/03/06 06:05:47;;;;;;;11.32;5.68;;;1.90;94.80;;;;;;6200232;23;20048;-88
2021/03/06 06:08:14;;;;;;;11.20;5.88;;;1.90;94.80;;;;;;6175820;23;20025;-91
2021/03/06 06:10:40;;;;;;;8.88;5.00;;;1.80;94.80;;;;;;6202036;23;20005;-91
2021/03/06 06:13:06;;;;;;;12.45;5.18;;;1.90;94.70;;;;;;6201199;23;20011;-95
2021/03/06 06:15:32;;;;;;;10.82;5.05;;;1.90;94.80;;;;;;6177606;23;19997;-91
2021/03/06 06:17:58;;;;;;;12.80;5.50;;;1.90;94.70;;;;;;6204236;23;20017;-90
2021/03/06 06:20:24;;;;;;;11.00;8.10;;;1.90;94.70;;;;;;6177008;23;20025;-89
2021/03/06 06:23:16;;;;;;;10.10;5.20;;;1.90;94.70;;;;;;6201582;23;20024;-87
2021/03/06 06:25:47;;;;;;;8.82;4.72;;;1.90;94.80;;;;;;6182648;23;20025;-90
2021/03/06 06:28:13;;;;;;;9.13;4.38;;;1.90;94.70;;;;;;6199843;23;20056;-90
2021/03/06 06:30:39;;;;;;;9.15;4.78;;;1.90;94.60;;;;;;6174220;23;20021;-95
2021/03/06 06:33:04;;;;;;;9.73;5.05;;;1.90;94.70;;;;;;6173177;23;20013;-89
2021/03/06 06:35:40;;;;;;;12.27;4.53;;;1.90;94.70;;;;;;6200868;23;20028;-94
2021/03/06 06:38:10;;;;;;;8.50;4.78;;;1.90;94.60;;;;;;6196911;23;20021;-95
2021/03/06 06:40:38;;;;;;;10.13;4.38;;;1.90;94.60;;;;;;6197551;23;20029;-90
2021/03/06 06:43:21;;;;;;;9.85;4.38;;;2.00;94.60;;;;;;6169291;23;20032;-94
2021/03/06 06:45:48;;;;;;;8.95;4.18;;;2.10;94.70;;;;;;6164916;23;20059;-89
2021/03/06 06:48:14;;;;;;;7.45;4.13;;;2.00;94.50;;;;;;6169775;23;20032;-92
2021/03/06 06:50:40;;;;;;;9.30;4.20;;;2.10;94.60;;;;;;6189743;23;20017;-95
2021/03/06 06:53:05;;;;;;;8.38;4.43;;;2.10;94.70;;;;;;6169079;23;20017;-95
2021/03/06 06:55:40;;;;;;;12.75;4.38;;;2.10;94.70;;;;;;6190906;23;20021;-92
2021/03/06 06:58:06;;;;;;;7.20;4.10;;;2.10;94.70;;;;;;6186195;23;20021;-93
2021/03/06 07:00:34;;;;;;;6.82;4.45;;;2.20;94.80;;;;;;6160018;23;20028;-95
2021/03/06 07:03:02;;;;;;;10.52;4.28;;;2.20;94.70;;;;;;6157485;23;20021;-94
2021/03/06 07:05:39;;;;;;;9.75;4.43;;;2.20;94.70;;;;;;6181256;23;20044;-94
2021/03/06 07:08:20;;;;;;;9.68;4.60;;;2.30;94.80;;;;;;6157309;23;20024;-94
2021/03/06 07:10:46;;;;;;;9.10;4.65;;;2.30;94.80;;;;;;6179454;23;20336;-94
2021/03/06 07:13:14;;;;;;;11.35;4.93;;;2.30;94.70;;;;;;6179825;23;20103;-95
2021/03/06 07:15:41;;;;;;;8.45;4.65;;;2.40;94.70;;;;;;6184430;23;20017;-93
2021/03/06 07:18:17;;;;;;;8.45;5.00;;;2.40;94.70;;;;;;6156377;23;20021;-95
2021/03/06 07:20:43;;;;;;;10.57;5.40;;;2.50;94.70;;;;;;6193159;23;20028;-93
2021/03/06 07:23:24;;;;;;;8.55;4.50;;;2.50;94.70;;;;;;6164940;23;20098;-93
2021/03/06 07:25:56;;;;;;;10.48;4.57;;;2.50;94.70;;;;;;6176844;23;20029;-90
2021/03/06 07:28:23;;;;;;;8.80;5.07;;;2.50;94.70;;;;;;6177261;23;20075;-90
2021/03/06 07:30:50;;;;;;;11.02;6.35;;;2.60;94.70;;;;;;6180883;23;20020;-93
2021/03/06 07:33:18;;;;;;;15.55;8.45;;;2.60;94.60;;;;;;6178794;23;20056;-94
2021/03/06 07:35:45;;;;;;;14.15;8.77;;;2.70;94.60;;;;;;6159953;23;20048;-90
2021/03/06 07:44:12;;;;;;;;;;;2.80;94.40;;;;;;6185093;22;20973;-91
2021/03/06 07:49:56;;;;;;;12.52;5.40;;;2.90;94.30;;;;;;6182897;23;20061;-92
2021/03/06 07:52:36;;;;;;;9.50;5.03;;;3.00;94.30;;;;;;6105477;23;20028;-85
2021/03/06 07:55:17;;;;;;;12.50;5.28;;;3.10;94.30;;;;;;6126643;23;20026;-91
2021/03/06 07:58:03;;;;;;;10.95;5.63;;;3.10;94.30;;;;;;6162729;23;20032;-95
2021/03/06 08:00:55;;;;;;;12.35;4.25;;;3.20;94.30;;;;;;6104318;23;20020;-94
2021/03/06 08:03:36;;;;;;;8.00;3.67;;;3.30;94.30;;;;;;6166330;23;20025;-94
2021/03/06 08:06:22;;;;;;;10.32;3.50;;;3.40;94.40;;;;;;6118453;23;20153;-94
2021/03/06 08:08:56;;;;;;;6.20;3.20;;;3.50;94.60;;;;;;6180250;23;20028;-95
2021/03/06 08:11:36;;;;;;;6.68;2.38;;;3.70;94.40;;;;;;6147625;23;20033;-92
2021/03/06 08:14:25;;;;;;;4.15;1.88;;;3.80;94.50;;;;;;6146690;23;20032;-94
2021/03/06 08:16:55;;;;;;;5.07;1.58;;;4.00;94.30;;;;;;6132094;22;20028;-88
2021/03/06 08:19:31;;;;;;;5.38;1.67;;;4.10;93.60;;;;;;6140237;23;20088;-94
2021/03/06 08:24:41;;;;;;;3.90;1.30;;;4.30;93.00;;;;;;6112068;23;20026;-92
2021/03/06 08:27:11;;;;;;;4.35;1.25;;;4.50;91.90;;;;;;6037391;23;20036;-94
2021/03/06 08:29:50;;;;;;;5.07;1.45;;;4.50;92.00;;;;;;6087277;23;20027;-94
2021/03/06 08:32:34;;;;;;;3.83;1.40;;;4.50;91.80;;;;;;6148921;23;20044;-91
2021/03/06 08:35:19;;;;;;;3.70;1.30;;;4.60;91.90;;;;;;6036203;23;20033;-91
2021/03/06 08:37:57;;;;;;;3.63;1.55;;;4.60;91.50;;;;;;6017073;23;20461;-91
2021/03/06 08:40:33;;;;;;;5.28;1.80;;;4.60;91.70;;;;;;6001077;23;20112;-91
2021/03/06 08:43:05;;;;;;;6.32;1.58;;;4.60;91.70;;;;;;6003503;23;20022;-90
2021/03/06 08:45:33;;;;;;;3.50;1.30;;;4.70;92.00;;;;;;6011771;23;20026;-91
2021/03/06 08:48:03;;;;;;;2.35;1.30;;;4.70;92.00;;;;;;6043030;23;20467;-93
2021/03/06 08:50:33;;;;;;;4.35;1.30;;;4.70;91.90;;;;;;6072491;23;20021;-91
2021/03/06 08:53:03;;;;;;;4.90;1.35;;;4.70;91.90;;;;;;6159054;23;20021;-88
2021/03/06 08:55:38;;;;;;;4.32;1.40;;;4.80;92.00;;;;;;6079238;23;20051;-87
2021/03/06 08:58:28;;;;;;;2.28;1.40;;;5.00;91.10;;;;;;6073849;23;20092;-87
2021/03/06 09:01:05;;;;;;;4.32;1.35;;;5.00;90.60;;;;;;6086814;23;20035;-88
2021/03/06 09:03:43;;;;;;;4.43;1.25;;;4.90;90.50;;;;;;6132764;23;20158;-87
2021/03/06 09:06:13;;;;;;;3.50;1.15;;;5.00;90.30;;;;;;6092326;23;20579;-89
2021/03/06 09:08:44;;;;;;;3.47;1.77;;;4.90;90.70;;;;;;6010798;23;20033;-88
2021/03/06 09:11:41;;;;;;;4.85;1.77;;;4.90;90.70;;;;;;6034550;23;20048;-88
2021/03/06 09:14:10;;;;;;;3.88;1.40;;;4.90;90.80;;;;;;6079029;23;20109;-88
2021/03/06 09:16:36;;;;;;;4.80;1.60;;;5.00;90.80;;;;;;6059987;23;20021;-85
2021/03/06 09:19:04;;;;;;;5.72;1.40;;;5.00;90.60;;;;;;6040881;23;20096;-85
2021/03/06 09:21:30;;;;;;;4.18;1.40;;;5.00;90.40;;;;;;6070887;23;20025;-85
2021/03/06 09:23:56;;;;;;;6.63;1.80;;;5.10;90.30;;;;;;6162694;23;20024;-89
2021/03/06 09:26:26;;;;;;;2.60;1.30;;;5.10;90.50;;;;;;6162729;23;20021;-85
2021/03/06 09:28:55;;;;;;;4.68;1.83;;;5.10;90.80;;;;;;6125472;23;20495;-84
2021/03/06 09:31:28;;;;;;;5.00;1.38;;;5.20;90.40;;;;;;6123738;23;20104;-84
2021/03/06 09:33:54;;;;;;;8.10;1.70;;;5.10;90.90;;;;;;6161051;23;20020;-84
2021/03/06 09:36:22;;;;;;;3.53;1.40;;;5.10;90.90;;;;;;6180106;23;20009;-84
2021/03/06 09:38:50;;;;;;;6.72;1.50;;;5.20;90.70;;;;;;6153436;23;20017;-84
2021/03/06 09:41:22;;;;;;;6.10;1.38;;;5.30;90.80;;;;;;6152493;23;20021;-84
2021/03/06 09:43:53;;;;;;;4.30;1.25;;;5.40;91.10;;;;;;6180342;23;20025;-81
2021/03/06 09:46:24;;;;;;;3.22;1.30;;;5.60;90.60;;;;;;6152189;23;20134;-84
2021/03/06 09:48:53;;;;;;;4.07;1.42;;;5.60;90.60;;;;;;6179632;23;20025;-83
2021/03/06 09:51:21;;;;;;;5.20;1.60;;;5.70;90.60;;;;;;6152497;23;20089;-83
2021/03/06 09:53:59;;;;;;;6.50;1.58;;;5.80;90.40;;;;;;6179441;23;20100;-84
2021/03/06 09:56:25;;;;;;;4.75;1.70;;;5.70;90.30;;;;;;6178026;23;20463;-86
2021/03/06 09:58:59;;;;;;;6.95;2.30;;;5.80;90.20;;;;;;6154689;23;20027;-84
2021/03/06 10:01:25;;;;;;;5.93;1.48;;;5.80;89.50;;;;;;6151871;23;20351;-83
2021/03/06 10:03:52;;;;;;;5.93;2.45;;;5.90;88.50;;;;;;6179700;23;20068;-84
2021/03/06 10:06:21;;;;;;;5.15;1.60;;;5.90;88.20;;;;;;6178051;23;20020;-84
2021/03/06 10:08:52;;;;;;;4.32;1.70;;;5.90;88.00;;;;;;6153364;23;20344;-82
2021/03/06 10:11:18;;;;;;;5.50;1.90;;;5.80;88.10;;;;;;6151501;23;20055;-84
2021/03/06 10:13:51;;;;;;;6.43;3.67;;;5.80;88.40;;;;;;6179196;23;20348;-83
2021/03/06 10:16:18;;;;;;;6.75;4.20;;;6.00;88.50;;;;;;6152487;23;20486;-84
2021/03/06 10:18:43;;;;;;;5.80;2.03;;;6.00;88.30;;;;;;6179377;23;20028;-83
2021/03/06 10:21:23;;;;;;;4.25;1.40;;;6.10;88.50;;;;;;6179888;23;20025;-85
2021/03/06 10:23:50;;;;;;;4.00;1.50;;;6.20;86.50;;;;;;6178953;23;20025;-88
2021/03/06 10:26:20;;;;;;;6.40;2.10;;;6.20;85.50;;;;;;6155932;23;20320;-88
2021/03/06 10:28:48;;;;;;;6.65;2.30;;;6.20;85.80;;;;;;6178527;23;20013;-84
2021/03/06 10:31:29;;;;;;;3.70;1.60;;;6.20;85.90;;;;;;6154017;23;20021;-88
2021/03/06 10:34:13;;;;;;;4.70;1.35;;;6.20;84.70;;;;;;6178826;23;20487;-85
2021/03/06 10:36:39;;;;;;;4.15;1.38;;;6.10;83.00;;;;;;6180669;23;20017;-84
2021/03/06 10:39:20;;;;;;;6.72;1.65;;;5.70;84.10;;;;;;6178821;23;20017;-83
2021/03/06 10:41:56;;;;;;;4.65;1.58;;;5.30;86.60;;;;;;6179722;23;20048;-84
2021/03/06 10:44:22;;;;;;;8.60;2.45;;;5.10;88.40;;;;;;6153224;23;20021;-88
2021/03/06 10:46:58;;;;;;;6.60;2.08;;;5.00;89.50;;;;;;6180661;23;20116;-92
2021/03/06 10:49:35;;;;;;;5.53;1.80;;;5.10;90.30;;;;;;6153188;23;20029;-94
2021/03/06 10:52:01;;;;;;;7.20;2.10;;;5.20;90.40;;;;;;6180954;23;20347;-96
2021/03/06 10:54:26;;;;;;;4.03;1.70;;;5.30;90.20;;;;;;6178547;23;20017;-95
2021/03/06 10:57:05;;;;;;;5.07;1.65;;;5.40;90.40;;;;;;6168191;23;20380;-93
2021/03/06 10:59:36;;;;;;;4.18;1.20;;;5.50;90.30;;;;;;6155560;23;20072;-94
2021/03/06 11:02:02;;;;;;;4.43;1.60;;;5.60;89.90;;;;;;6145292;23;20084;-90
2021/03/06 11:04:34;;;;;;;3.85;1.70;;;5.70;89.40;;;;;;6178042;23;20063;-87
2021/03/06 11:07:05;;;;;;;4.97;1.80;;;5.80;88.70;;;;;;6157359;23;20105;-92
2021/03/06 11:09:40;;;;;;;4.47;1.90;;;5.80;88.80;;;;;;6138097;23;20399;-87
2021/03/06 11:12:33;;;;;;;;;;;;;;;;;;;;;
2021/03/06 11:15:29;;;;;;;4.80;1.80;;;5.80;86.70;;;;;;5911258;23;20027;-88
2021/03/06 11:18:17;;;;;;;;;;;5.60;88.80;;;;;;5906792;24;20024;-87
2021/03/06 11:21:15;;;;;;;;;;;;;;;;;;;;;
2021/03/06 11:37:36;;;;;;;6.70;3.35;;;5.40;90.50;;;;;;4977656;27;2909406;-87
2021/03/06 11:40:04;;;;;;;7.10;3.08;;;5.70;91.30;;;;;;5033575;28;20056;-89
2021/03/06 11:42:30;;;;;;;8.82;2.92;;;5.70;91.10;;;;;;5050542;28;20124;-87
2021/03/06 11:47:58;;;;;;;3.25;1.80;;;5.90;90.90;;;;;;4872035;28;20062;-88
2021/03/06 11:50:34;;;;;;;5.00;1.90;;;5.90;90.00;;;;;;4887379;28;20129;-88
2021/03/06 11:53:05;;;;;;;3.83;2.00;;;5.90;89.60;;;;;;4923649;28;20065;-95
2021/03/06 11:56:04;;;;;;;5.47;1.75;;;5.90;89.20;;;;;;4934527;28;20130;-89
2021/03/06 11:58:32;;;;;;;4.90;1.67;;;5.90;88.20;;;;;;4878018;28;20036;-92
2021/03/06 12:01:02;;;;;;;5.45;1.98;;;6.00;87.70;;;;;;4874727;29;20044;-89
2021/03/06 12:03:30;;;;;;;7.30;2.05;;;5.90;88.30;;;;;;4869703;28;20585;-89
2021/03/06 12:06:31;;;;;;;4.65;1.65;;;6.00;87.70;;;;;;4950990;27;986622;-91
2021/03/06 12:09:06;;;;;;;4.38;1.92;;;6.00;87.50;;;;;;5011367;28;20127;-90
2021/03/06 12:11:47;;;;;;;5.50;1.80;;;5.80;86.80;;;;;;5027214;28;20373;-92
2021/03/06 12:14:18;;;;;;;5.05;1.98;;;5.70;87.70;;;;;;4998752;28;20100;-92
2021/03/06 12:16:54;;;;;;;7.13;2.60;;;5.60;89.00;;;;;;4959292;28;20533;-89
2021/03/06 12:19:23;;;;;;;4.40;1.90;;;5.50;90.20;;;;;;5010133;28;20064;-88
2021/03/06 12:21:59;;;;;;;6.32;2.53;;;5.40;90.20;;;;;;4983522;28;20080;-91
2021/03/06 12:24:46;;;;;;;5.43;1.98;;;5.40;90.40;;;;;;4999857;28;20040;-90
2021/03/06 12:27:16;;;;;;;7.15;2.15;;;5.40;90.70;;;;;;5009555;28;20496;-87
2021/03/06 12:30:19;;;;;;;;;;;;;;;;;;;;;
2021/03/06 12:33:14;;;;;;;6.28;2.33;;;5.30;90.90;;;;;;4932080;28;20201;-90
2021/03/06 12:35:40;;;;;;;5.13;1.95;;;5.30;90.80;;;;;;4956777;28;20137;-90
2021/03/06 12:38:11;;;;;;;6.22;2.00;;;5.30;90.80;;;;;;4985591;28;20054;-89
2021/03/06 12:40:52;;;;;;;6.40;2.00;;;5.30;90.80;;;;;;4934441;28;20124;-90
2021/03/06 12:43:40;;;;;;;6.28;2.30;;;5.40;90.80;;;;;;4909746;28;20047;-91
2021/03/06 12:49:24;;;;;;;8.90;3.72;;;5.50;90.70;;;;;;4901040;28;20056;-92
2021/03/06 12:52:01;;;;;;;;;;;;;;;;;;;;;
2021/03/06 12:54:32;;;;;;;8.02;4.20;;;5.70;90.80;;;;;;4919689;28;20136;-89
2021/03/06 12:57:03;;;;;;;9.88;3.75;;;5.80;90.80;;;;;;4961996;28;20058;-94
2021/03/06 12:59:29;;;;;;;8.50;3.08;;;5.80;90.60;;;;;;4963010;28;20103;-93
2021/03/06 13:05:32;;;;;;;7.15;3.70;;;5.80;90.40;;;;;;5052795;23;20056;-89
2021/03/06 13:27:41;;;;;;;3.90;1.88;;;5.80;88.70;;;;;;4933303;28;20055;-92
2021/03/06 13:30:19;;;;;;;6.15;3.10;;;5.80;87.10;;;;;;4865964;29;20060;-91
2021/03/06 13:33:15;;;;;;;10.30;5.25;;;5.90;85.30;;;;;;4816609;29;20124;-96
2021/03/06 13:35:58;;;;;;;9.52;4.70;;;5.90;83.70;;;;;;4764881;29;20142;-94
2021/03/06 13:38:50;;;;;;;12.30;5.30;;;5.80;85.10;;;;;;4773620;29;20066;-94
2021/03/06 13:41:24;;;;;;;12.32;6.55;;;5.90;84.20;;;;;;4732239;29;20593;-94
2021/03/06 13:44:01;;;;;;;10.60;5.70;;;5.80;84.20;;;;;;4734758;29;20078;-95
2021/03/06 13:46:48;;;;;;;11.05;4.93;;;5.90;84.40;;;;;;4725571;29;20050;-95
2021/03/06 13:49:19;;;;;;;8.40;4.70;;;5.90;84.10;;;;;;4767167;29;20055;-92
2021/03/06 13:52:14;;;;;;;10.75;5.00;;;5.90;83.60;;;;;;5015484;27;845772;-92
2021/03/06 13:54:59;;;;;;;7.35;4.00;;;6.00;84.00;;;;;;5053567;28;20040;-95
2021/03/06 13:57:28;;;;;;;7.50;4.07;;;6.00;83.90;;;;;;4970822;28;20445;-91
2021/03/06 14:00:00;;;;;;;6.50;3.30;;;6.10;83.90;;;;;;5006862;28;20051;-92
2021/03/06 14:03:05;;;;;;;;;;;;;;;;;;;;;
2021/03/06 14:05:55;;;;;;;7.13;3.05;;;6.10;82.40;;;;;;5037442;28;20048;-94
2021/03/06 14:08:26;;;;;;;5.95;2.80;;;6.30;82.00;;;;;;5031329;28;20056;-96
2021/03/06 14:10:57;;;;;;;6.32;2.65;;;6.30;81.30;;;;;;4993255;28;20109;-94
2021/03/06 14:13:30;;;;;;;5.97;2.42;;;6.40;77.70;;;;;;4960490;28;20137;-93
2021/03/06 14:16:01;;;;;;;5.38;2.13;;;6.40;79.20;;;;;;5000583;28;20079;-92
2021/03/06 14:18:27;;;;;;;7.05;2.30;;;6.50;78.00;;;;;;4963000;28;20085;-91
2021/03/06 14:21:10;;;;;;;6.75;2.05;;;6.40;77.90;;;;;;4983609;28;20815;-95
2021/03/06 14:24:03;;;;;;;4.90;2.17;;;6.30;78.60;;;;;;4979799;23;20122;-96
2021/03/06 14:27:05;;;;;;;4.85;2.28;;;6.40;79.70;;;;;;4952613;28;20058;-94
2021/03/06 14:29:34;;;;;;;7.18;2.75;;;6.40;80.30;;;;;;4917604;28;20479;-94
2021/03/06 14:32:12;;;;;;;5.57;1.90;;;6.50;79.00;;;;;;4946402;28;20109;-90
2021/03/06 14:34:51;;;;;;;4.45;2.50;;;6.50;78.50;;;;;;4910138;28;20129;-91
2021/03/06 14:37:18;;;;;;;5.35;1.95;;;6.40;76.50;;;;;;4935123;28;20055;-92
2021/03/06 14:40:03;;;;;;;;;;;;;;;;;;;;;
2021/03/06 14:42:50;;;;;;;;;;;;;;;;;;;;;
2021/03/06 14:45:39;;;;;;;27.73;16.95;;;6.30;78.10;;;;;;4857446;29;20051;-90
2021/03/06 14:48:07;;;;;;;12.32;6.95;;;6.30;78.40;;;;;;4874076;29;20698;-91
2021/03/06 14:50:35;;;;;;;7.32;3.30;;;6.30;78.10;;;;;;4876111;28;20067;-91
2021/03/06 14:53:01;;;;;;;5.38;2.53;;;6.40;76.60;;;;;;4905628;28;20059;-90
2021/03/06 14:55:36;;;;;;;4.82;2.60;;;6.40;76.30;;;;;;4868882;28;20089;-90
2021/03/06 14:58:25;;;;;;;6.50;2.85;;;6.40;76.30;;;;;;4835506;29;20061;-91
2021/03/06 15:00:53;;;;;;;6.28;2.40;;;6.30;76.30;;;;;;4787833;29;20503;-91
2021/03/06 15:03:22;;;;;;;5.85;1.90;;;6.20;76.70;;;;;;4773128;29;20051;-90
2021/03/06 15:05:47;;;;;;;9.07;3.45;;;6.20;75.70;;;;;;4789383;29;20193;-92